Aviation Digital Data Service (ADDS)

Output produced by TAFs form (1559 UTC 16 April 2014)
found at http://aviationweather.gov/adds/tafs/
 
KHOB 161120Z 1612/1712 17011KT P6SM SCT250 
     FM161800 17012G20KT P6SM SCT250 
     FM170100 18013KT P6SM SCT250 
     FM170900 36012G18KT P6SM SCT250